Heat Index SAI AWOS Graphical Display Untitled Document
Sidney Municipal Airport , NY ( N23 )
290
19:40
18/09/23
03
N/A
N/A
30.23
N/A
1027
61(F), 16(C)
49(F), 9(C)
60 F
63%
CLR
10
N/A
N/A
N/A
19:40 zulu Wind 290 at 04 Knots, Altimeter 30.23
METAR KN23 231940Z AUTO 29004KT 10SM CLR 16/09 A3023 A02
METAR:
FAA Disclaimer--Advisory Use ONLY, not for flight info-- 6/29/2009: Sidney Airport, operations 607-561-2346, Pilots with cellphones (smartphones) can now view awos at http://www.saiawos3.com/N23
INFO:
Wind Direction:
Wind Speed:
Wind Gust:
Wind Variable:
Altimeter:
Dens Alt:
Elev:
Temp:
Dwpt:
Wind Chill
Rel Humidity:
Ceiling:
Visibility:
Prsnt Wea:
PCPN:
Remarks:
How to read the WebPage